createdAt,value
2022-08-29T00:02:06.949Z,27.95
2022-08-29T00:04:35.315Z,34.60
2022-08-29T00:07:02.748Z,29.58
2022-08-29T00:09:30.453Z,29.83
2022-08-29T00:11:57.712Z,28.90
2022-08-29T00:14:25.059Z,31.90
2022-08-29T00:16:52.474Z,38.95
2022-08-29T00:19:20.516Z,28.13
2022-08-29T00:21:47.989Z,33.58
2022-08-29T00:24:16.219Z,30.52
2022-08-29T00:26:43.492Z,34.47
2022-08-29T00:29:10.847Z,46.70
2022-08-29T00:31:38.605Z,40.00
2022-08-29T00:34:05.921Z,35.15
2022-08-29T00:36:34.008Z,31.33
2022-08-29T00:39:01.349Z,33.28
2022-08-29T00:41:28.903Z,32.70
2022-08-29T00:43:56.702Z,29.83
2022-08-29T00:46:34.792Z,35.95
2022-08-29T00:49:13.903Z,31.88
2022-08-29T00:51:41.556Z,43.78
2022-08-29T00:54:10.770Z,40.42
2022-08-29T00:56:39.320Z,34.00
2022-08-29T00:59:10.634Z,30.92
2022-08-29T01:01:39.756Z,37.13
2022-08-29T01:04:09.764Z,38.05
2022-08-29T01:06:43.421Z,32.60
2022-08-29T01:09:12.025Z,33.30
2022-08-29T01:11:57.843Z,34.03
2022-08-29T01:14:28.650Z,31.05
2022-08-29T01:16:58.046Z,38.67
2022-08-29T01:19:38.250Z,45.78
2022-08-29T01:22:11.975Z,47.45
2022-08-29T01:24:46.150Z,41.65
2022-08-29T01:27:14.340Z,40.63
2022-08-29T01:29:41.640Z,41.55
2022-08-29T01:32:09.030Z,41.88
2022-08-29T01:34:36.871Z,40.83
2022-08-29T01:37:06.732Z,37.90
2022-08-29T01:39:37.754Z,32.83
2022-08-29T01:42:27.027Z,37.55
2022-08-29T01:44:56.632Z,38.70
2022-08-29T01:47:27.462Z,38.13
2022-08-29T01:49:55.078Z,38.15
2022-08-29T01:52:23.297Z,32.45
2022-08-29T01:54:50.562Z,34.50
2022-08-29T01:57:18.124Z,35.25
2022-08-29T01:59:45.840Z,32.13
2022-08-29T02:02:20.883Z,39.88
2022-08-29T02:04:49.086Z,35.55
2022-08-29T02:07:20.648Z,33.22
2022-08-29T02:09:48.212Z,34.22
2022-08-29T02:12:16.089Z,38.97
2022-08-29T02:14:44.970Z,37.85
2022-08-29T02:17:12.531Z,36.10
2022-08-29T02:19:41.000Z,38.80
2022-08-29T02:22:08.541Z,34.67
2022-08-29T02:24:35.911Z,37.47
2022-08-29T02:27:03.826Z,39.05
2022-08-29T02:29:37.978Z,34.78
2022-08-29T02:32:08.256Z,33.85
2022-08-29T02:34:37.095Z,37.42
2022-08-29T02:37:05.952Z,40.10
2022-08-29T02:39:34.526Z,40.42
2022-08-29T02:42:02.565Z,36.03
2022-08-29T02:44:29.974Z,42.85
2022-08-29T02:46:57.607Z,37.70
2022-08-29T02:49:25.031Z,41.45
2022-08-29T02:51:52.284Z,40.67
2022-08-29T02:54:19.686Z,42.05
2022-08-29T02:56:47.493Z,45.10
2022-08-29T02:59:15.369Z,49.08
2022-08-29T03:01:42.661Z,44.60
2022-08-29T03:04:10.093Z,50.13
2022-08-29T03:06:37.344Z,40.05
2022-08-29T03:09:04.885Z,40.45
2022-08-29T03:11:32.280Z,40.45
2022-08-29T03:13:59.636Z,34.33
2022-08-29T03:16:27.297Z,39.10
2022-08-29T03:18:55.012Z,37.63
2022-08-29T03:21:25.034Z,40.25
2022-08-29T03:23:52.877Z,37.67
2022-08-29T03:26:20.465Z,31.95
2022-08-29T03:28:48.335Z,31.08
2022-08-29T03:31:17.483Z,32.83
2022-08-29T03:33:46.822Z,25.33
2022-08-29T03:36:14.922Z,31.55
2022-08-29T03:38:44.064Z,31.88
2022-08-29T03:41:12.383Z,27.88
2022-08-29T03:43:39.961Z,30.70
2022-08-29T03:46:07.353Z,29.00
2022-08-29T03:48:37.000Z,29.23
2022-08-29T03:51:05.178Z,26.70
2022-08-29T03:53:33.222Z,24.73
2022-08-29T03:56:00.611Z,27.63
2022-08-29T03:58:30.062Z,25.33
2022-08-29T04:00:57.343Z,23.77
2022-08-29T04:03:31.087Z,21.30
2022-08-29T04:05:59.319Z,25.02
2022-08-29T04:08:26.844Z,21.98
2022-08-29T04:10:54.309Z,21.83
2022-08-29T04:13:22.013Z,20.90
2022-08-29T04:15:53.671Z,20.48
2022-08-29T04:18:22.530Z,23.27
2022-08-29T04:20:50.040Z,18.23
2022-08-29T04:23:17.360Z,18.40
2022-08-29T04:25:44.863Z,20.63
2022-08-29T04:28:13.936Z,23.30
2022-08-29T04:30:51.376Z,16.70
2022-08-29T04:33:22.892Z,17.45
2022-08-29T04:35:51.422Z,19.67
2022-08-29T04:38:19.499Z,17.63
2022-08-29T04:40:47.013Z,25.40
2022-08-29T04:43:14.922Z,18.30
2022-08-29T04:45:42.524Z,22.15
2022-08-29T04:48:10.978Z,24.90
2022-08-29T04:50:39.067Z,22.77
2022-08-29T04:53:06.711Z,21.55
2022-08-29T04:55:34.158Z,20.30
2022-08-29T04:58:01.643Z,18.67
2022-08-29T05:00:31.453Z,20.98
2022-08-29T05:03:03.666Z,17.17
2022-08-29T05:05:31.411Z,17.08
2022-08-29T05:07:58.747Z,14.68
2022-08-29T05:10:26.420Z,16.33
2022-08-29T05:12:53.718Z,19.30
2022-08-29T05:15:21.225Z,21.27
2022-08-29T05:17:48.645Z,15.55
2022-08-29T05:20:17.015Z,23.15
2022-08-29T05:22:44.409Z,16.15
2022-08-29T05:25:17.964Z,18.50
2022-08-29T05:27:49.204Z,21.35
2022-08-29T05:30:32.079Z,16.90
2022-08-29T05:33:03.442Z,29.85
2022-08-29T05:35:31.291Z,38.35
2022-08-29T05:37:58.659Z,23.75
2022-08-29T05:40:26.576Z,24.10
2022-08-29T05:42:54.173Z,21.90
2022-08-29T05:45:21.945Z,28.00
2022-08-29T05:47:49.307Z,24.05
2022-08-29T05:50:17.147Z,20.13
2022-08-29T05:52:44.654Z,19.90
2022-08-29T05:55:12.218Z,30.00
2022-08-29T05:57:39.598Z,27.48
2022-08-29T06:00:09.497Z,24.15
2022-08-29T06:02:37.030Z,22.67
2022-08-29T06:05:05.435Z,26.08
2022-08-29T06:07:34.209Z,49.10
2022-08-29T06:10:06.768Z,25.63
2022-08-29T06:12:34.659Z,23.95
2022-08-29T06:15:02.283Z,25.77
2022-08-29T06:17:30.130Z,20.08
2022-08-29T06:19:57.691Z,17.27
2022-08-29T06:22:25.362Z,28.95
2022-08-29T06:24:57.525Z,19.55
2022-08-29T06:27:25.294Z,19.00
2022-08-29T06:29:53.713Z,21.45
2022-08-29T06:32:21.394Z,23.50
2022-08-29T06:34:48.852Z,19.42
2022-08-29T06:37:16.563Z,27.05
2022-08-29T06:39:44.068Z,21.63
2022-08-29T06:42:11.491Z,19.83
2022-08-29T06:44:43.832Z,24.38
2022-08-29T06:47:11.806Z,22.50
2022-08-29T06:49:39.678Z,27.10
2022-08-29T06:52:07.122Z,22.80
2022-08-29T06:54:36.447Z,27.15
2022-08-29T06:57:05.118Z,26.10
2022-08-29T06:59:33.505Z,33.03
2022-08-29T07:02:00.967Z,36.25
2022-08-29T07:04:29.272Z,27.77
2022-08-29T07:06:56.848Z,29.13
2022-08-29T07:09:25.837Z,24.73
2022-08-29T07:11:54.162Z,26.77
2022-08-29T07:14:22.640Z,22.45
2022-08-29T07:16:50.894Z,24.42
2022-08-29T07:19:18.555Z,23.67
2022-08-29T07:21:45.979Z,23.13
2022-08-29T07:24:13.558Z,24.52
2022-08-29T07:26:47.174Z,18.83
2022-08-29T07:29:19.614Z,21.35
2022-08-29T07:31:47.632Z,20.63
2022-08-29T07:34:15.864Z,17.33
2022-08-29T07:36:45.724Z,20.02
2022-08-29T07:39:16.277Z,16.95
2022-08-29T07:41:44.479Z,20.63
2022-08-29T07:44:13.209Z,23.45
2022-08-29T07:46:41.165Z,23.58
2022-08-29T07:49:09.290Z,19.92
2022-08-29T07:51:36.906Z,21.63
2022-08-29T07:54:06.783Z,22.65
2022-08-29T07:56:40.251Z,24.15
2022-08-29T07:59:08.362Z,23.00
2022-08-29T08:01:36.618Z,20.73
2022-08-29T08:04:05.011Z,19.77
2022-08-29T08:06:34.350Z,20.23
2022-08-29T08:09:05.175Z,19.45
2022-08-29T08:11:32.642Z,20.33
2022-08-29T08:14:03.392Z,27.80
2022-08-29T08:16:34.004Z,22.95
2022-08-29T08:19:05.361Z,17.83
2022-08-29T08:21:34.697Z,23.30
2022-08-29T08:24:14.989Z,16.95
2022-08-29T08:26:46.270Z,21.50
2022-08-29T08:29:13.661Z,34.45
2022-08-29T08:31:45.778Z,26.33
2022-08-29T08:34:16.293Z,24.23
2022-08-29T08:36:44.986Z,24.65
2022-08-29T08:39:16.682Z,18.63
2022-08-29T08:42:03.340Z,23.13
2022-08-29T08:44:37.896Z,22.65
2022-08-29T08:47:07.926Z,23.80
2022-08-29T08:49:48.035Z,23.80
2022-08-29T08:52:20.759Z,20.55
2022-08-29T08:54:55.387Z,25.00
2022-08-29T08:57:27.713Z,22.05
2022-08-29T08:59:59.061Z,19.33
2022-08-29T09:02:45.505Z,19.00
2022-08-29T09:05:34.415Z,18.33
2022-08-29T09:08:14.071Z,23.52
2022-08-29T09:10:58.096Z,22.98
2022-08-29T09:13:58.840Z,20.45
2022-08-29T09:16:49.723Z,20.40
2022-08-29T09:19:17.553Z,22.13
2022-08-29T09:21:53.956Z,26.15
2022-08-29T09:24:34.730Z,21.48
2022-08-29T09:27:02.557Z,21.15
2022-08-29T09:29:31.662Z,23.80
2022-08-29T09:32:10.817Z,19.85
2022-08-29T09:35:07.450Z,22.40
2022-08-29T09:37:35.212Z,22.88
2022-08-29T09:40:15.817Z,22.48
2022-08-29T09:43:00.715Z,21.45
2022-08-29T09:45:29.347Z,17.88
2022-08-29T09:48:16.334Z,19.90
2022-08-29T09:50:44.417Z,22.17
2022-08-29T09:53:24.705Z,20.70
2022-08-29T09:55:53.507Z,15.90
2022-08-29T09:58:21.073Z,14.73
2022-08-29T10:00:59.918Z,20.10
2022-08-29T10:03:29.331Z,17.00
2022-08-29T10:06:29.476Z,21.25
2022-08-29T10:09:10.626Z,23.27
2022-08-29T10:11:46.203Z,22.25
2022-08-29T10:14:18.062Z,20.88
2022-08-29T10:16:53.434Z,22.50
2022-08-29T10:19:34.392Z,27.02
2022-08-29T10:24:57.890Z,22.50
2022-08-29T10:27:44.684Z,30.02
2022-08-29T10:30:22.439Z,20.38
2022-08-29T10:33:11.629Z,21.88
2022-08-29T10:35:39.730Z,22.25
2022-08-29T10:38:07.043Z,19.55
2022-08-29T10:40:43.205Z,21.50
2022-08-29T10:43:24.278Z,19.23
2022-08-29T10:46:13.269Z,23.23
2022-08-29T10:49:18.869Z,19.45
2022-08-29T10:52:23.815Z,18.67
2022-08-29T10:54:56.337Z,20.55
2022-08-29T10:57:59.237Z,19.00
2022-08-29T11:00:49.378Z,18.85
2022-08-29T11:03:32.040Z,16.92
2022-08-29T11:06:04.321Z,18.38
2022-08-29T11:08:41.404Z,18.85
2022-08-29T11:11:11.422Z,18.63
2022-08-29T11:13:44.048Z,20.33
2022-08-29T11:16:47.853Z,20.23
2022-08-29T11:19:26.626Z,19.35
2022-08-29T11:22:02.464Z,17.95
2022-08-29T11:24:34.686Z,18.38
2022-08-29T11:27:11.413Z,21.20
2022-08-29T11:30:02.664Z,24.63
2022-08-29T11:33:04.369Z,21.67
2022-08-29T11:35:37.733Z,16.63
2022-08-29T11:38:12.591Z,18.00
2022-08-29T11:43:48.147Z,15.38
2022-08-29T11:46:16.365Z,18.00
2022-08-29T11:48:49.250Z,13.68
2022-08-29T11:51:39.322Z,15.15
2022-08-29T11:54:26.376Z,14.85
2022-08-29T11:57:00.564Z,15.60
2022-08-29T11:59:49.678Z,14.95
2022-08-29T12:02:39.207Z,13.90
2022-08-29T12:05:20.761Z,12.70
2022-08-29T12:08:02.825Z,17.90
2022-08-29T12:10:51.763Z,13.00
2022-08-29T12:13:43.924Z,11.45
2022-08-29T12:16:13.608Z,15.55
2022-08-29T12:19:01.271Z,16.50
2022-08-29T12:21:38.034Z,12.80
2022-08-29T12:24:07.919Z,14.73
2022-08-29T12:26:42.953Z,16.85
2022-08-29T12:29:19.457Z,21.05
2022-08-29T12:32:24.397Z,15.88
2022-08-29T12:35:19.082Z,19.10
2022-08-29T12:37:57.824Z,16.75
2022-08-29T12:40:45.338Z,20.30
2022-08-29T12:43:35.838Z,15.45
2022-08-29T12:46:10.706Z,15.23
2022-08-29T12:48:42.705Z,12.40
2022-08-29T12:51:10.547Z,16.75
2022-08-29T12:53:38.076Z,12.68
2022-08-29T12:56:20.874Z,12.15
2022-08-29T12:58:51.479Z,14.45
2022-08-29T13:01:34.772Z,12.00
2022-08-29T13:04:04.961Z,16.25
2022-08-29T13:06:36.542Z,13.93
2022-08-29T13:09:06.191Z,9.63
2022-08-29T13:11:34.391Z,15.88
2022-08-29T13:14:11.901Z,13.98
2022-08-29T13:16:40.509Z,10.43
2022-08-29T13:19:21.472Z,16.13
2022-08-29T13:21:51.010Z,12.05
2022-08-29T13:24:20.773Z,12.98
2022-08-29T13:27:04.816Z,15.77
2022-08-29T13:29:39.696Z,11.80
2022-08-29T13:32:24.205Z,10.45
2022-08-29T13:35:13.565Z,14.73
2022-08-29T13:37:46.160Z,16.85
2022-08-29T13:40:38.446Z,9.18
2022-08-29T13:43:06.904Z,10.05
2022-08-29T13:45:37.738Z,11.75
2022-08-29T13:48:18.490Z,13.07
2022-08-29T13:50:54.049Z,15.85
2022-08-29T13:53:26.362Z,16.40
2022-08-29T13:55:53.882Z,12.07
2022-08-29T13:58:21.962Z,9.95
2022-08-29T14:00:50.253Z,10.95
2022-08-29T14:03:18.818Z,11.70
2022-08-29T14:05:46.893Z,13.00
2022-08-29T14:08:14.783Z,13.38
2022-08-29T14:10:43.880Z,16.95
2022-08-29T14:13:12.317Z,14.60
2022-08-29T14:15:39.846Z,14.90
2022-08-29T14:18:07.546Z,13.27
2022-08-29T14:20:40.011Z,16.45
2022-08-29T14:23:10.887Z,11.68
2022-08-29T14:25:39.043Z,18.67
2022-08-29T14:28:06.522Z,10.73
2022-08-29T14:30:34.077Z,14.55
2022-08-29T14:33:05.043Z,15.32
2022-08-29T14:35:35.310Z,16.83
2022-08-29T14:38:11.188Z,11.50
2022-08-29T14:40:39.763Z,13.85
2022-08-29T14:43:10.869Z,10.60
2022-08-29T14:45:38.675Z,17.08
2022-08-29T14:48:06.655Z,13.77
2022-08-29T14:50:35.152Z,13.27
2022-08-29T14:53:03.126Z,17.90
2022-08-29T14:55:31.499Z,12.68
2022-08-29T14:58:05.287Z,15.05
2022-08-29T15:00:36.134Z,12.10
2022-08-29T15:03:06.883Z,14.95
2022-08-29T15:05:36.068Z,13.73
2022-08-29T15:08:06.544Z,16.38
2022-08-29T15:10:34.955Z,12.23
2022-08-29T15:13:02.843Z,16.77
2022-08-29T15:15:30.680Z,16.90
2022-08-29T15:17:59.849Z,15.13
2022-08-29T15:20:37.213Z,12.88
2022-08-29T15:23:08.388Z,14.18
2022-08-29T15:25:38.780Z,10.10
2022-08-29T15:28:13.368Z,12.70
2022-08-29T15:30:42.141Z,14.07
2022-08-29T15:33:09.568Z,18.63
2022-08-29T15:35:41.542Z,26.20
2022-08-29T15:38:09.445Z,25.55
2022-08-29T15:40:39.225Z,15.38
2022-08-29T15:43:06.832Z,17.13
2022-08-29T15:45:34.705Z,15.10
2022-08-29T15:48:04.178Z,14.68
2022-08-29T15:50:39.471Z,16.98
2022-08-29T15:53:11.252Z,12.95
2022-08-29T15:55:44.195Z,14.10
2022-08-29T15:58:11.912Z,15.20
2022-08-29T16:00:39.366Z,13.30
2022-08-29T16:03:10.499Z,21.10
2022-08-29T16:05:40.287Z,12.40
2022-08-29T16:08:07.952Z,19.25
2022-08-29T16:10:40.296Z,12.48
2022-08-29T16:13:08.806Z,12.43
2022-08-29T16:15:37.426Z,17.00
2022-08-29T16:18:06.934Z,11.02
2022-08-29T16:20:37.992Z,15.18
2022-08-29T16:23:06.649Z,12.00
2022-08-29T16:25:34.871Z,18.23
2022-08-29T16:28:13.768Z,16.15
2022-08-29T16:30:45.966Z,18.98
2022-08-29T16:33:14.198Z,17.92
2022-08-29T16:35:41.717Z,18.23
2022-08-29T16:38:10.047Z,15.68
2022-08-29T16:40:41.867Z,19.38
2022-08-29T16:43:09.762Z,18.63
2022-08-29T16:45:38.240Z,18.42
2022-08-29T16:48:06.000Z,22.67
2022-08-29T16:50:43.369Z,18.85
2022-08-29T16:53:10.947Z,16.55
2022-08-29T16:55:38.416Z,19.40
2022-08-29T16:58:24.549Z,21.58
2022-08-29T17:00:52.174Z,17.30
2022-08-29T17:03:20.356Z,15.55
2022-08-29T17:05:49.444Z,17.63
2022-08-29T17:08:20.231Z,13.77
2022-08-29T17:10:47.727Z,18.30
2022-08-29T17:13:16.457Z,14.20
2022-08-29T17:15:43.836Z,22.25
2022-08-29T17:18:11.308Z,22.45
2022-08-29T17:20:38.974Z,16.45
2022-08-29T17:23:13.169Z,14.55
2022-08-29T17:25:40.647Z,18.27
2022-08-29T17:28:17.637Z,18.38
2022-08-29T17:30:51.878Z,23.00
2022-08-29T17:33:19.639Z,30.08
2022-08-29T17:35:48.034Z,31.63
2022-08-29T17:38:15.768Z,23.35
2022-08-29T17:40:43.785Z,23.17
2022-08-29T17:43:13.175Z,25.90
2022-08-29T17:45:40.980Z,24.17
2022-08-29T17:48:08.719Z,28.40
2022-08-29T17:50:36.379Z,28.35
2022-08-29T17:53:04.975Z,21.98
2022-08-29T17:55:32.926Z,22.15
2022-08-29T17:58:00.213Z,23.60
2022-08-29T18:00:28.100Z,22.63
2022-08-29T18:02:55.638Z,21.33
2022-08-29T18:05:23.003Z,59.08
2022-08-29T18:07:51.798Z,27.27
2022-08-29T18:10:19.968Z,22.45
2022-08-29T18:12:49.633Z,40.28
2022-08-29T18:15:17.632Z,34.50
2022-08-29T18:17:45.506Z,28.40
2022-08-29T18:20:15.338Z,28.92
2022-08-29T18:22:43.402Z,48.38
2022-08-29T18:25:11.708Z,30.20
2022-08-29T18:27:43.649Z,27.60
2022-08-29T18:30:13.680Z,30.38
2022-08-29T18:32:45.483Z,34.22
2022-08-29T18:35:13.919Z,22.33
2022-08-29T18:37:41.273Z,21.15
2022-08-29T18:40:09.777Z,24.05
2022-08-29T18:42:40.769Z,29.88
2022-08-29T18:45:09.548Z,23.30
2022-08-29T18:47:38.032Z,26.23
2022-08-29T18:50:24.971Z,28.83
2022-08-29T18:52:53.344Z,21.25
2022-08-29T18:55:23.489Z,28.85
2022-08-29T18:57:51.412Z,26.98
2022-08-29T19:00:19.122Z,24.90
2022-08-29T19:02:47.078Z,33.55
2022-08-29T19:05:15.197Z,28.63
2022-08-29T19:07:43.508Z,27.98
2022-08-29T19:10:12.526Z,27.60
2022-08-29T19:12:40.315Z,40.33
2022-08-29T19:15:08.765Z,35.60
2022-08-29T19:17:41.175Z,38.88
2022-08-29T19:20:30.007Z,54.65
2022-08-29T19:22:57.390Z,29.55
2022-08-29T19:25:25.195Z,29.90
2022-08-29T19:27:52.630Z,23.95
2022-08-29T19:30:20.132Z,28.55
2022-08-29T19:32:53.824Z,24.17
2022-08-29T19:35:22.740Z,19.55
2022-08-29T19:37:50.189Z,26.48
2022-08-29T19:40:19.709Z,24.73
2022-08-29T19:42:47.710Z,23.58
2022-08-29T19:45:16.752Z,25.10
2022-08-29T19:47:44.358Z,20.15
2022-08-29T19:50:13.822Z,22.50
2022-08-29T19:52:41.272Z,28.05
2022-08-29T19:55:12.321Z,65.32
2022-08-29T19:57:40.816Z,35.42
2022-08-29T20:00:13.993Z,21.00
2022-08-29T20:02:42.971Z,22.27
2022-08-29T20:05:13.977Z,23.02
2022-08-29T20:07:43.954Z,20.45
2022-08-29T20:10:16.115Z,23.42
2022-08-29T20:12:45.523Z,27.63
2022-08-29T20:15:13.075Z,23.05
2022-08-29T20:17:43.492Z,41.28
2022-08-29T20:20:15.709Z,35.70
2022-08-29T20:22:43.238Z,22.00
2022-08-29T20:25:11.437Z,28.52
2022-08-29T20:27:39.656Z,31.95
2022-08-29T20:30:15.993Z,26.67
2022-08-29T20:32:45.447Z,16.95
2022-08-29T20:35:34.349Z,22.92
2022-08-29T20:38:02.519Z,28.15
2022-08-29T20:40:30.650Z,15.38
2022-08-29T20:43:00.824Z,17.17
2022-08-29T20:45:29.461Z,21.13
2022-08-29T20:47:58.018Z,17.85
2022-08-29T20:50:25.699Z,19.00
2022-08-29T20:52:54.119Z,15.35
2022-08-29T20:55:22.711Z,16.88
2022-08-29T20:57:50.206Z,20.52
2022-08-29T21:00:19.735Z,22.13
2022-08-29T21:03:05.611Z,13.98
2022-08-29T21:05:39.746Z,16.25
2022-08-29T21:08:09.509Z,20.27
2022-08-29T21:10:37.314Z,22.25
2022-08-29T21:13:05.782Z,16.25
2022-08-29T21:15:33.795Z,12.90
2022-08-29T21:18:02.385Z,18.55
2022-08-29T21:20:30.307Z,14.02
2022-08-29T21:23:03.988Z,15.77
2022-08-29T21:25:34.073Z,16.58
2022-08-29T21:28:01.969Z,16.45
2022-08-29T21:30:36.163Z,17.23
2022-08-29T21:33:04.035Z,14.13
2022-08-29T21:35:31.585Z,15.93
2022-08-29T21:38:01.537Z,15.88
2022-08-29T21:40:29.252Z,15.43
2022-08-29T21:42:57.135Z,13.63
2022-08-29T21:45:25.258Z,12.73
2022-08-29T21:47:57.341Z,14.02
2022-08-29T21:50:25.782Z,12.75
2022-08-29T21:52:53.394Z,14.60
2022-08-29T21:55:22.055Z,16.50
2022-08-29T21:57:52.142Z,16.95
2022-08-29T22:00:21.012Z,15.85
2022-08-29T22:02:48.786Z,16.33
2022-08-29T22:05:16.498Z,12.02
2022-08-29T22:07:44.556Z,14.48
2022-08-29T22:10:20.338Z,15.85
2022-08-29T22:12:48.626Z,13.20
2022-08-29T22:15:34.820Z,14.00
2022-08-29T22:18:02.143Z,18.83
2022-08-29T22:20:30.291Z,20.05
2022-08-29T22:22:57.671Z,18.08
2022-08-29T22:25:25.099Z,37.00
2022-08-29T22:27:52.432Z,31.25
2022-08-29T22:30:20.154Z,42.00
2022-08-29T22:32:51.140Z,31.10
2022-08-29T22:35:21.841Z,22.63
2022-08-29T22:37:51.452Z,17.60
2022-08-29T22:40:21.485Z,11.27
2022-08-29T22:42:48.843Z,17.45
2022-08-29T22:45:17.072Z,14.20
2022-08-29T22:47:46.649Z,28.88
2022-08-29T22:50:21.367Z,24.17
2022-08-29T22:52:49.646Z,21.13
2022-08-29T22:57:48.143Z,15.07
2022-08-29T23:00:19.414Z,16.98
2022-08-29T23:02:48.118Z,16.58
2022-08-29T23:05:15.729Z,17.27
2022-08-29T23:07:43.775Z,13.98
2022-08-29T23:10:12.618Z,15.77
2022-08-29T23:12:40.457Z,18.33
2022-08-29T23:15:11.802Z,13.85
2022-08-29T23:17:39.231Z,13.43
2022-08-29T23:20:09.305Z,14.63
2022-08-29T23:22:39.542Z,15.50
2022-08-29T23:25:13.358Z,17.70
2022-08-29T23:27:40.761Z,18.80
2022-08-29T23:30:10.792Z,15.60
2022-08-29T23:32:38.658Z,13.88
2022-08-29T23:35:07.601Z,12.55
2022-08-29T23:37:35.650Z,18.95
2022-08-29T23:40:03.930Z,12.85
2022-08-29T23:42:32.292Z,13.45
2022-08-29T23:44:59.778Z,11.77
2022-08-29T23:47:27.207Z,16.42
2022-08-29T23:49:54.534Z,13.88
2022-08-29T23:52:21.816Z,13.63
2022-08-29T23:54:49.160Z,16.95
2022-08-29T23:57:19.206Z,13.02
